Time;durP1;ratioP1;P1;durP2;ratioP2;P2;SDS_P1;SDS_P2;PMS_P1;PMS_P2;Temp;Humidity;BMP_temperature;BMP_pressure;BME280_temperature;BME280_humidity;BME280_pressure;Samples;Min_cycle;Max_cycle;Signal;HPM_P1;HPM_P2
2022/06/02 00:01:48;;;;;;;7.70;2.97;;;;;;;;;;10442636;28;20037;-70
2022/06/02 00:06:51;;;;;;;8.27;3.15;;;;;;;;;;10447204;28;20025;-77
2022/06/02 00:11:55;;;;;;;9.75;4.18;;;;;;;;;;10446421;28;20021;-73
2022/06/02 00:17:01;;;;;;;6.78;3.97;;;;;;;;;;10447390;28;20017;-71
2022/06/02 00:22:05;;;;;;;10.90;3.80;;;;;;;;;;10429367;28;20020;-71
2022/06/02 00:27:14;;;;;;;6.00;4.13;;;;;;;;;;10446706;28;20024;-72
2022/06/02 00:32:22;;;;;;;7.20;4.25;;;;;;;;;;10445756;28;20028;-72
2022/06/02 00:37:41;;;;;;;6.80;3.45;;;;;;;;;;10445437;28;20102;-73
2022/06/02 00:43:00;;;;;;;5.07;3.53;;;;;;;;;;10445290;28;20021;-71
2022/06/02 00:48:11;;;;;;;13.20;3.92;;;;;;;;;;10445728;28;20028;-74
2022/06/02 00:53:30;;;;;;;5.55;3.65;;;;;;;;;;10461654;28;20040;-72
2022/06/02 00:58:30;;;;;;;;;;;;;;;;;;10445790;28;20457;-74
2022/06/02 01:03:42;;;;;;;10.00;3.53;;;;;;;;;;10444237;28;19913;-71
2022/06/02 01:08:45;;;;;;;6.82;3.17;;;;;;;;;;10445636;28;20052;-75
2022/06/02 01:13:53;;;;;;;5.65;2.67;;;;;;;;;;10445832;28;20102;-73
2022/06/02 01:19:04;;;;;;;3.38;3.08;;;;;;;;;;10427363;28;20028;-71
2022/06/02 01:24:22;;;;;;;6.07;3.03;;;;;;;;;;10445083;28;20078;-73
2022/06/02 01:29:32;;;;;;;5.82;3.40;;;;;;;;;;10443722;28;20140;-71
2022/06/02 01:34:51;;;;;;;8.15;3.38;;;;;;;;;;10442590;28;20063;-72
2022/06/02 01:39:51;;;;;;;6.88;3.70;;;;;;;;;;10443129;28;20530;-73
2022/06/02 01:44:58;;;;;;;7.05;4.03;;;;;;;;;;10442735;28;20410;-71
2022/06/02 01:50:17;;;;;;;8.15;3.42;;;;;;;;;;10442662;28;20013;-71
2022/06/02 01:55:27;;;;;;;7.88;4.03;;;;;;;;;;10443004;28;20044;-74
2022/06/02 02:00:30;;;;;;;7.18;3.83;;;;;;;;;;10443950;28;20410;-72
2022/06/02 02:05:49;;;;;;;7.20;3.65;;;;;;;;;;10442193;28;20017;-75
2022/06/02 02:10:55;;;;;;;9.23;3.58;;;;;;;;;;10442460;28;20039;-71
2022/06/02 02:16:16;;;;;;;10.38;3.33;;;;;;;;;;10442043;28;20025;-73
2022/06/02 02:21:16;;;;;;;5.43;3.88;;;;;;;;;;10441839;28;20025;-73
2022/06/02 02:26:31;;;;;;;9.55;3.75;;;;;;;;;;10442370;28;20028;-71
2022/06/02 02:31:43;;;;;;;7.47;4.40;;;;;;;;;;10425520;28;20116;-75
2022/06/02 02:36:58;;;;;;;6.28;3.63;;;;;;;;;;10425384;28;20051;-72
2022/06/02 02:42:01;;;;;;;8.65;3.30;;;;;;;;;;10441636;28;20392;-75
2022/06/02 02:47:20;;;;;;;9.65;4.32;;;;;;;;;;10461364;28;20028;-71
2022/06/02 02:52:38;;;;;;;9.13;3.25;;;;;;;;;;10451096;28;20025;-72
2022/06/02 02:57:46;;;;;;;7.57;3.78;;;;;;;;;;10450583;28;20048;-75
2022/06/02 03:02:56;;;;;;;9.90;5.07;;;;;;;;;;10449274;28;20480;-73
2022/06/02 03:08:19;;;;;;;11.98;4.38;;;;;;;;;;10450090;28;20025;-72
2022/06/02 03:13:32;;;;;;;6.50;4.10;;;;;;;;;;10448778;28;20167;-71
2022/06/02 03:18:35;;;;;;;11.20;5.20;;;;;;;;;;10432489;28;20513;-70
2022/06/02 03:23:44;;;;;;;8.30;4.43;;;;;;;;;;10448849;28;20583;-72
2022/06/02 03:29:01;;;;;;;10.93;5.32;;;;;;;;;;10448294;28;20020;-72
2022/06/02 03:34:01;;;;;;;10.85;5.22;;;;;;;;;;10448998;28;20096;-71
2022/06/02 03:39:04;;;;;;;12.00;5.13;;;;;;;;;;10447793;28;20020;-71
2022/06/02 03:44:16;;;;;;;8.95;5.90;;;;;;;;;;10448947;28;20025;-72
2022/06/02 03:49:16;;;;;;;14.10;6.30;;;;;;;;;;10463894;28;20020;-73
2022/06/02 03:54:35;;;;;;;9.18;5.60;;;;;;;;;;10446937;28;20510;-71
2022/06/02 03:59:54;;;;;;;17.90;7.10;;;;;;;;;;10447884;28;20411;-72
2022/06/02 04:05:06;;;;;;;10.88;5.13;;;;;;;;;;10448036;28;20044;-73
2022/06/02 04:10:25;;;;;;;13.07;5.30;;;;;;;;;;10447362;28;20021;-76
2022/06/02 04:15:45;;;;;;;16.77;5.00;;;;;;;;;;10447577;28;20448;-73
2022/06/02 04:20:51;;;;;;;18.30;5.57;;;;;;;;;;10397211;28;20033;-74
2022/06/02 04:26:01;;;;;;;11.52;4.43;;;;;;;;;;10446944;28;20384;-70
2022/06/02 04:31:08;;;;;;;10.45;5.13;;;;;;;;;;10449731;28;20432;-73
2022/06/02 04:36:23;;;;;;;10.13;3.85;;;;;;;;;;10447759;28;20490;-72
2022/06/02 04:41:42;;;;;;;11.52;3.92;;;;;;;;;;10446849;28;20024;-71
2022/06/02 04:46:59;;;;;;;8.27;3.70;;;;;;;;;;10443326;28;20016;-73
2022/06/02 04:52:06;;;;;;;8.77;3.47;;;;;;;;;;10443984;28;20017;-72
2022/06/02 04:57:09;;;;;;;9.02;3.53;;;;;;;;;;10443290;28;20140;-72
2022/06/02 05:02:25;;;;;;;9.30;4.15;;;;;;;;;;10445157;28;20044;-73
2022/06/02 05:07:29;;;;;;;11.25;4.65;;;;;;;;;;10445286;28;20403;-73
2022/06/02 05:12:29;;;;;;;6.57;3.88;;;;;;;;;;10444905;28;20467;-74
2022/06/02 05:17:30;;;;;;;8.63;3.70;;;;;;;;;;10444551;28;20025;-71
2022/06/02 05:22:45;;;;;;;10.48;4.82;;;;;;;;;;10445797;28;20025;-71
2022/06/02 05:27:58;;;;;;;11.48;5.28;;;;;;;;;;10445725;28;20463;-76
2022/06/02 05:33:16;;;;;;;8.77;5.20;;;;;;;;;;10445743;28;20040;-71
2022/06/02 05:38:28;;;;;;;7.97;4.20;;;;;;;;;;10445319;28;20037;-74
2022/06/02 05:43:44;;;;;;;7.78;4.65;;;;;;;;;;10443629;28;20028;-74
2022/06/02 05:48:56;;;;;;;10.93;4.13;;;;;;;;;;10444099;28;20037;-72
2022/06/02 05:53:57;;;;;;;8.43;4.07;;;;;;;;;;10443545;28;20056;-80
2022/06/02 05:59:00;;;;;;;12.75;4.00;;;;;;;;;;10443364;28;20517;-75
2022/06/02 06:04:03;;;;;;;6.07;4.32;;;;;;;;;;10443391;28;20024;-77
2022/06/02 06:09:12;;;;;;;7.05;3.88;;;;;;;;;;10444785;28;20033;-71
2022/06/02 06:14:39;;;;;;;7.85;3.97;;;;;;;;;;10418285;28;20542;-73
2022/06/02 06:20:02;;;;;;;13.02;4.00;;;;;;;;;;10379504;28;20033;-71
2022/06/02 06:25:09;;;;;;;6.65;3.70;;;;;;;;;;10452004;28;20109;-71
2022/06/02 06:30:15;;;;;;;9.40;3.33;;;;;;;;;;10452496;28;20098;-70
2022/06/02 06:35:15;;;;;;;7.22;3.25;;;;;;;;;;10452812;28;20680;-73
2022/06/02 06:40:34;;;;;;;6.28;3.05;;;;;;;;;;10452111;28;20021;-72
2022/06/02 06:45:53;;;;;;;6.80;2.90;;;;;;;;;;10450400;28;20028;-71
2022/06/02 06:50:58;;;;;;;6.18;2.60;;;;;;;;;;10450414;28;20020;-75
2022/06/02 06:56:21;;;;;;;4.07;2.80;;;;;;;;;;10450051;28;20098;-73
2022/06/02 07:01:25;;;;;;;8.38;3.03;;;;;;;;;;10433896;28;20021;-71
2022/06/02 07:06:31;;;;;;;4.97;2.50;;;;;;;;;;10450294;28;20074;-73
2022/06/02 07:16:57;;;;;;;5.80;2.42;;;;;;;;;;10450782;28;20033;-77
2022/06/02 07:22:00;;;;;;;4.63;2.55;;;;;;;;;;10449626;28;20612;-74
2022/06/02 07:27:01;;;;;;;9.00;2.78;;;;;;;;;;10449617;28;20024;-72
2022/06/02 07:32:19;;;;;;;6.67;2.23;;;;;;;;;;10450277;28;20498;-73
2022/06/02 07:37:20;;;;;;;5.10;2.25;;;;;;;;;;10448804;28;20170;-72
2022/06/02 07:42:39;;;;;;;8.93;2.28;;;;;;;;;;10448690;28;20029;-71
2022/06/02 07:47:58;;;;;;;10.18;2.90;;;;;;;;;;10448458;28;20021;-74
2022/06/02 07:53:01;;;;;;;6.97;2.78;;;;;;;;;;10449442;28;20517;-71
2022/06/02 07:58:15;;;;;;;6.40;2.42;;;;;;;;;;10449516;28;20136;-73
2022/06/02 08:03:34;;;;;;;10.88;2.78;;;;;;;;;;10447448;28;20078;-72
2022/06/02 08:08:40;;;;;;;8.27;2.35;;;;;;;;;;10447391;28;20115;-71
2022/06/02 08:13:47;;;;;;;6.60;2.47;;;;;;;;;;10448626;28;20056;-72
2022/06/02 08:18:54;;;;;;;29.48;4.15;;;;;;;;;;10446971;28;20043;-71
2022/06/02 08:24:13;;;;;;;6.55;2.88;;;;;;;;;;10446922;28;20028;-72
2022/06/02 08:29:22;;;;;;;5.38;2.78;;;;;;;;;;10447155;28;20028;-72
2022/06/02 08:34:28;;;;;;;7.47;2.67;;;;;;;;;;10446596;28;20517;-73
2022/06/02 08:39:47;;;;;;;9.02;2.28;;;;;;;;;;10446606;28;20017;-72
2022/06/02 08:45:07;;;;;;;8.68;2.20;;;;;;;;;;10445535;28;20455;-70
2022/06/02 08:50:20;;;;;;;5.13;2.15;;;;;;;;;;10447256;28;20032;-70
2022/06/02 08:55:26;;;;;;;4.10;1.80;;;;;;;;;;10446649;28;20076;-72
2022/06/02 09:00:42;;;;;;;4.90;1.42;;;;;;;;;;10445919;28;20044;-72
2022/06/02 09:05:48;;;;;;;5.60;1.60;;;;;;;;;;10445676;28;20017;-71
2022/06/02 09:10:53;;;;;;;5.32;1.58;;;;;;;;;;10444836;28;20041;-72
2022/06/02 09:15:59;;;;;;;5.40;1.60;;;;;;;;;;10444700;28;20107;-71
2022/06/02 09:21:06;;;;;;;7.10;1.98;;;;;;;;;;10444528;28;20021;-74
2022/06/02 09:26:28;;;;;;;5.18;1.45;;;;;;;;;;10444255;28;20482;-69
2022/06/02 09:31:55;;;;;;;4.57;1.20;;;;;;;;;;10444254;28;20087;-75
2022/06/02 09:37:02;;;;;;;8.32;1.42;;;;;;;;;;10444289;28;20684;-71
2022/06/02 09:42:21;;;;;;;8.10;1.08;;;;;;;;;;10444216;28;20116;-76
2022/06/02 09:47:46;;;;;;;6.28;1.42;;;;;;;;;;10445144;28;20053;-71
2022/06/02 09:53:01;;;;;;;3.05;1.40;;;;;;;;;;10443414;28;20158;-73
2022/06/02 09:58:14;;;;;;;7.20;1.42;;;;;;;;;;10442709;28;20506;-71
2022/06/02 10:03:14;;;;;;;6.53;1.52;;;;;;;;;;10443212;28;20082;-75
2022/06/02 10:08:19;;;;;;;5.22;1.40;;;;;;;;;;10443379;28;20099;-72
2022/06/02 10:13:22;;;;;;;4.78;1.13;;;;;;;;;;10443371;28;20025;-71
2022/06/02 10:18:29;;;;;;;5.78;1.50;;;;;;;;;;10443161;28;20017;-74
2022/06/02 10:23:48;;;;;;;6.82;1.42;;;;;;;;;;10443249;28;20386;-74
2022/06/02 10:29:17;;;;;;;1.95;0.80;;;;;;;;;;10442492;28;20021;-72
2022/06/02 10:34:37;;;;;;;5.55;1.17;;;;;;;;;;10443089;28;20111;-76
2022/06/02 10:39:43;;;;;;;8.00;1.67;;;;;;;;;;10441695;28;20051;-69
2022/06/02 10:44:57;;;;;;;12.07;1.30;;;;;;;;;;10442589;28;20032;-73
2022/06/02 10:50:10;;;;;;;3.40;1.03;;;;;;;;;;10442974;28;20079;-78
2022/06/02 10:55:16;;;;;;;4.68;1.20;;;;;;;;;;10442078;28;20513;-73
2022/06/02 11:00:25;;;;;;;8.95;1.60;;;;;;;;;;10442168;28;20108;-72
2022/06/02 11:05:29;;;;;;;2.85;1.15;;;;;;;;;;10442629;28;20586;-72
2022/06/02 11:10:33;;;;;;;4.35;1.48;;;;;;;;;;10448355;28;20025;-74
2022/06/02 11:15:33;;;;;;;4.00;1.40;;;;;;;;;;10449875;28;20024;-73
2022/06/02 11:20:33;;;;;;;6.85;1.77;;;;;;;;;;10449754;28;20036;-70
2022/06/02 11:25:52;;;;;;;5.22;1.98;;;;;;;;;;10449713;28;20021;-71
2022/06/02 11:31:02;;;;;;;6.22;1.80;;;;;;;;;;10417286;28;20117;-71
2022/06/02 11:36:28;;;;;;;11.38;1.75;;;;;;;;;;10424600;28;20010;-74
2022/06/02 11:41:37;;;;;;;6.35;1.48;;;;;;;;;;10407621;28;20132;-72
2022/06/02 11:46:57;;;;;;;3.63;1.88;;;;;;;;;;10428167;28;20503;-74
2022/06/02 11:52:14;;;;;;;4.75;2.28;;;;;;;;;;10448380;28;20089;-72
2022/06/02 11:57:17;;;;;;;9.18;2.38;;;;;;;;;;10448049;28;20141;-70
2022/06/02 12:02:44;;;;;;;5.90;2.00;;;;;;;;;;10449109;28;20052;-71
2022/06/02 12:08:03;;;;;;;5.43;2.33;;;;;;;;;;10410775;28;20041;-75
2022/06/02 12:13:07;;;;;;;8.07;2.20;;;;;;;;;;10447513;28;20476;-70
2022/06/02 12:18:16;;;;;;;4.65;2.78;;;;;;;;;;10446382;28;20025;-74
2022/06/02 12:23:32;;;;;;;7.85;2.17;;;;;;;;;;10443074;28;20025;-75
2022/06/02 12:28:33;;;;;;;3.55;1.88;;;;;;;;;;10429659;28;20017;-74
2022/06/02 12:33:50;;;;;;;9.00;1.90;;;;;;;;;;10438409;28;20641;-69
2022/06/02 12:38:50;;;;;;;10.55;3.80;;;;;;;;;;10433013;28;20372;-71
2022/06/02 12:44:09;;;;;;;6.65;2.33;;;;;;;;;;10436382;28;20404;-75
2022/06/02 12:49:28;;;;;;;7.80;2.33;;;;;;;;;;10447008;28;20527;-73
2022/06/02 12:54:47;;;;;;;10.63;2.55;;;;;;;;;;10439852;28;20051;-76
2022/06/02 13:00:06;;;;;;;4.38;2.38;;;;;;;;;;10450770;28;20482;-71
2022/06/02 13:05:25;;;;;;;3.80;2.28;;;;;;;;;;10444815;28;20479;-73
2022/06/02 13:10:28;;;;;;;2.90;1.85;;;;;;;;;;10432034;28;20017;-73
2022/06/02 13:15:48;;;;;;;6.10;1.98;;;;;;;;;;10431192;28;20411;-73
2022/06/02 13:21:17;;;;;;;7.40;2.38;;;;;;;;;;10434522;28;20087;-74
2022/06/02 13:26:21;;;;;;;5.65;2.20;;;;;;;;;;10411953;28;20187;-71
2022/06/02 13:31:40;;;;;;;7.20;2.38;;;;;;;;;;10431379;28;20094;-71
2022/06/02 13:36:59;;;;;;;9.18;2.42;;;;;;;;;;10431026;28;20090;-70
2022/06/02 13:42:18;;;;;;;2.60;2.13;;;;;;;;;;10426410;28;20525;-74
2022/06/02 13:47:27;;;;;;;7.85;2.47;;;;;;;;;;10430240;28;20090;-71
2022/06/02 13:52:45;;;;;;;9.68;2.63;;;;;;;;;;10428037;28;20032;-71
2022/06/02 13:58:04;;;;;;;4.05;1.88;;;;;;;;;;10435728;28;20067;-70
2022/06/02 14:03:10;;;;;;;4.97;2.03;;;;;;;;;;10427898;28;20404;-75
2022/06/02 14:08:31;;;;;;;3.92;2.05;;;;;;;;;;10424445;28;20481;-73
2022/06/02 14:13:44;;;;;;;8.95;2.40;;;;;;;;;;10421432;28;20025;-75
2022/06/02 14:18:51;;;;;;;10.18;3.13;;;;;;;;;;10426638;28;20082;-71
2022/06/02 14:24:03;;;;;;;6.90;2.23;;;;;;;;;;10437534;28;20021;-75
2022/06/02 14:29:09;;;;;;;8.73;2.83;;;;;;;;;;10436605;28;20407;-73
2022/06/02 14:34:42;;;;;;;9.10;2.45;;;;;;;;;;10417800;28;20018;-70
2022/06/02 14:39:48;;;;;;;9.20;3.22;;;;;;;;;;10387985;28;20092;-72
2022/06/02 14:45:01;;;;;;;6.40;2.27;;;;;;;;;;10441543;28;20115;-70
2022/06/02 14:50:25;;;;;;;10.20;2.75;;;;;;;;;;10449148;28;20078;-71
2022/06/02 14:55:38;;;;;;;6.50;2.28;;;;;;;;;;10448944;28;20044;-71
2022/06/02 15:00:49;;;;;;;8.65;2.28;;;;;;;;;;10449581;28;20186;-71
2022/06/02 15:05:49;;;;;;;5.00;2.60;;;;;;;;;;10449224;28;20031;-74
2022/06/02 15:11:12;;;;;;;10.35;2.42;;;;;;;;;;10450545;28;20029;-71
2022/06/02 15:16:31;;;;;;;9.75;2.50;;;;;;;;;;10449325;28;20036;-70
2022/06/02 15:21:45;;;;;;;7.40;3.38;;;;;;;;;;10448157;28;20367;-74
2022/06/02 15:26:57;;;;;;;8.10;3.00;;;;;;;;;;10448129;28;20025;-71
2022/06/02 15:31:58;;;;;;;8.88;2.53;;;;;;;;;;10448101;28;20025;-74
2022/06/02 15:37:11;;;;;;;9.95;2.78;;;;;;;;;;10448529;28;20449;-70
2022/06/02 15:42:35;;;;;;;8.20;2.30;;;;;;;;;;10448235;28;20047;-70
2022/06/02 15:47:54;;;;;;;4.72;2.30;;;;;;;;;;10447537;28;20032;-70
2022/06/02 15:53:01;;;;;;;11.65;2.63;;;;;;;;;;10446669;28;20442;-69
2022/06/02 15:58:02;;;;;;;8.93;2.20;;;;;;;;;;10443588;28;20032;-73
2022/06/02 16:03:14;;;;;;;8.30;2.90;;;;;;;;;;10425013;28;20033;-71
2022/06/02 16:08:14;;;;;;;6.03;2.55;;;;;;;;;;10439454;28;20867;-72
2022/06/02 16:13:24;;;;;;;8.07;2.55;;;;;;;;;;10411836;28;20031;-70
2022/06/02 16:18:24;;;;;;;5.78;2.40;;;;;;;;;;10444034;28;20031;-70
2022/06/02 16:23:25;;;;;;;7.63;2.33;;;;;;;;;;10442956;28;20028;-70
2022/06/02 16:28:42;;;;;;;5.87;1.97;;;;;;;;;;10443203;28;20029;-70
2022/06/02 16:34:04;;;;;;;6.07;2.05;;;;;;;;;;10451667;28;20111;-70
2022/06/02 16:39:13;;;;;;;7.75;2.13;;;;;;;;;;10437328;28;20043;-70
2022/06/02 16:44:33;;;;;;;4.22;2.08;;;;;;;;;;10420392;28;20032;-71
2022/06/02 16:49:46;;;;;;;6.38;2.92;;;;;;;;;;10455426;28;20171;-70
2022/06/02 16:54:59;;;;;;;12.60;2.80;;;;;;;;;;10443376;28;20855;-69
2022/06/02 16:59:59;;;;;;;8.98;2.65;;;;;;;;;;10443790;28;20108;-69
2022/06/02 17:05:18;;;;;;;6.85;2.40;;;;;;;;;;10443087;28;20474;-69
2022/06/02 17:10:24;;;;;;;6.05;3.00;;;;;;;;;;10446039;28;20021;-69
2022/06/02 17:15:43;;;;;;;4.70;2.78;;;;;;;;;;10444627;28;20078;-71
2022/06/02 17:20:47;;;;;;;6.88;2.78;;;;;;;;;;10443004;28;20017;-69
2022/06/02 17:26:03;;;;;;;5.05;2.45;;;;;;;;;;10427566;28;20058;-73
2022/06/02 17:31:22;;;;;;;5.97;2.80;;;;;;;;;;10430463;28;20036;-75
2022/06/02 17:36:25;;;;;;;6.28;2.17;;;;;;;;;;10441821;28;20050;-69
2022/06/02 17:41:32;;;;;;;8.77;2.60;;;;;;;;;;10431366;28;20479;-73
2022/06/02 17:46:35;;;;;;;6.28;2.65;;;;;;;;;;10421442;28;20056;-69
2022/06/02 17:51:55;;;;;;;11.25;3.13;;;;;;;;;;10422644;28;20514;-71
2022/06/02 17:57:11;;;;;;;12.32;4.53;;;;;;;;;;10429795;28;20487;-71
2022/06/02 18:02:19;;;;;;;11.52;3.30;;;;;;;;;;10412568;28;20508;-70
2022/06/02 18:07:19;;;;;;;9.60;3.63;;;;;;;;;;10399241;28;20083;-70
2022/06/02 18:12:23;;;;;;;11.50;4.43;;;;;;;;;;10416715;28;20029;-71
2022/06/02 18:17:26;;;;;;;11.30;4.05;;;;;;;;;;10412377;28;20017;-74
2022/06/02 18:22:26;;;;;;;14.13;4.13;;;;;;;;;;10416363;28;20111;-70
2022/06/02 18:27:46;;;;;;;10.73;4.60;;;;;;;;;;10403119;28;20087;-69
2022/06/02 18:32:46;;;;;;;13.05;4.85;;;;;;;;;;10424809;28;20366;-69
2022/06/02 18:38:11;;;;;;;10.48;4.35;;;;;;;;;;10429875;28;20026;-72
2022/06/02 18:43:30;;;;;;;12.93;4.35;;;;;;;;;;10434139;28;20128;-70
2022/06/02 18:48:49;;;;;;;12.50;4.60;;;;;;;;;;10428791;28;20172;-71
2022/06/02 18:54:07;;;;;;;11.98;4.13;;;;;;;;;;10413503;28;20040;-69
2022/06/02 18:59:32;;;;;;;11.57;4.38;;;;;;;;;;10442705;28;20017;-72
2022/06/02 19:04:45;;;;;;;10.15;3.97;;;;;;;;;;10383456;28;20025;-71
2022/06/02 19:15:20;;;;;;;15.18;7.00;;;;;;;;;;10442946;28;20415;-70
2022/06/02 19:20:42;;;;;;;11.10;4.97;;;;;;;;;;10441231;28;20051;-69
2022/06/02 19:26:01;;;;;;;12.70;5.68;;;;;;;;;;10440750;28;20029;-69
2022/06/02 19:31:05;;;;;;;11.27;4.53;;;;;;;;;;10446136;28;20549;-72
2022/06/02 19:36:07;;;;;;;12.35;5.00;;;;;;;;;;10446324;28;20527;-71
2022/06/02 19:41:26;;;;;;;8.82;4.35;;;;;;;;;;10446757;28;20017;-76
2022/06/02 19:46:39;;;;;;;7.35;3.67;;;;;;;;;;10447908;28;20021;-72
2022/06/02 19:51:42;;;;;;;10.70;3.80;;;;;;;;;;10447750;28;20112;-77
2022/06/02 19:57:00;;;;;;;5.47;3.42;;;;;;;;;;10448252;28;20392;-72
2022/06/02 20:02:00;;;;;;;;;;;;;;;;;;10432079;28;20029;-73
2022/06/02 20:07:04;;;;;;;10.85;4.35;;;;;;;;;;10447914;28;19904;-72
2022/06/02 20:12:24;;;;;;;6.25;3.22;;;;;;;;;;10448069;28;20056;-72
2022/06/02 20:17:36;;;;;;;14.90;5.43;;;;;;;;;;10447856;28;20564;-72
2022/06/02 20:22:40;;;;;;;10.48;4.65;;;;;;;;;;10447754;28;20104;-75
2022/06/02 20:27:47;;;;;;;7.13;4.45;;;;;;;;;;10447150;28;20055;-72
2022/06/02 20:33:04;;;;;;;12.77;5.30;;;;;;;;;;10414495;28;20025;-71
2022/06/02 20:38:07;;;;;;;10.35;4.15;;;;;;;;;;10420770;28;20102;-72
2022/06/02 20:43:08;;;;;;;14.07;6.60;;;;;;;;;;10446103;28;20063;-74
2022/06/02 20:48:20;;;;;;;11.97;4.17;;;;;;;;;;10448498;28;20067;-71
2022/06/02 20:53:26;;;;;;;10.02;4.47;;;;;;;;;;10446849;28;20134;-73
2022/06/02 20:58:34;;;;;;;9.68;4.32;;;;;;;;;;10420005;28;20021;-75
2022/06/02 21:03:40;;;;;;;10.55;4.68;;;;;;;;;;10408627;28;20024;-75
2022/06/02 21:08:46;;;;;;;8.98;4.63;;;;;;;;;;10462752;28;20083;-73
2022/06/02 21:14:06;;;;;;;23.80;4.72;;;;;;;;;;10445564;28;20035;-72
2022/06/02 21:19:16;;;;;;;11.40;4.60;;;;;;;;;;10428909;28;20566;-73
2022/06/02 21:24:19;;;;;;;8.88;4.15;;;;;;;;;;10447309;28;20025;-75
2022/06/02 21:29:22;;;;;;;13.45;4.70;;;;;;;;;;10445752;28;20395;-72
2022/06/02 21:34:22;;;;;;;15.40;5.80;;;;;;;;;;10445179;28;20025;-72
2022/06/02 21:39:48;;;;;;;13.40;5.35;;;;;;;;;;10444394;28;20021;-70
2022/06/02 21:44:49;;;;;;;15.10;4.70;;;;;;;;;;10439746;28;20059;-73
2022/06/02 21:49:51;;;;;;;13.57;3.85;;;;;;;;;;10444717;28;20024;-75
2022/06/02 21:55:21;;;;;;;6.88;5.15;;;;;;;;;;10444090;28;20044;-71
2022/06/02 22:00:51;;;;;;;10.05;3.97;;;;;;;;;;10358005;28;20029;-72
2022/06/02 22:06:09;;;;;;;10.63;5.93;;;;;;;;;;10357781;28;20051;-72
2022/06/02 22:11:19;;;;;;;11.70;4.43;;;;;;;;;;10443734;28;20013;-71
2022/06/02 22:16:21;;;;;;;13.13;4.45;;;;;;;;;;10444827;28;20033;-70
2022/06/02 22:21:28;;;;;;;8.07;4.28;;;;;;;;;;10427334;28;20036;-72
2022/06/02 22:26:35;;;;;;;14.43;5.50;;;;;;;;;;10443658;28;20031;-75
2022/06/02 22:31:35;;;;;;;8.30;5.55;;;;;;;;;;10442933;28;20479;-72
2022/06/02 22:37:03;;;;;;;7.15;4.20;;;;;;;;;;10443329;28;20036;-72
2022/06/02 22:42:09;;;;;;;6.32;3.90;;;;;;;;;;10442847;28;20051;-71
2022/06/02 22:47:20;;;;;;;7.07;4.32;;;;;;;;;;10443527;28;20029;-71
2022/06/02 22:52:29;;;;;;;12.95;4.90;;;;;;;;;;10444076;28;20469;-72
2022/06/02 22:57:33;;;;;;;9.10;4.50;;;;;;;;;;10442605;28;20041;-75
2022/06/02 23:02:48;;;;;;;6.70;4.07;;;;;;;;;;10443349;28;20565;-75
2022/06/02 23:08:07;;;;;;;9.35;3.70;;;;;;;;;;10452047;28;20021;-73
2022/06/02 23:13:07;;;;;;;;;;;;;;;;;;10451217;28;20394;-73
2022/06/02 23:18:19;;;;;;;7.65;3.70;;;;;;;;;;10450514;28;19909;-72
2022/06/02 23:23:48;;;;;;;8.75;4.15;;;;;;;;;;10450699;28;20498;-71
2022/06/02 23:28:57;;;;;;;8.27;5.00;;;;;;;;;;10430489;28;20028;-73
2022/06/02 23:34:08;;;;;;;9.38;4.75;;;;;;;;;;10447601;28;20032;-73
2022/06/02 23:39:11;;;;;;;8.45;4.95;;;;;;;;;;10407915;28;20018;-71
2022/06/02 23:44:24;;;;;;;6.80;5.18;;;;;;;;;;10431637;28;20059;-71
2022/06/02 23:50:03;;;;;;;10.02;4.88;;;;;;;;;;10448939;28;20047;-76
2022/06/02 23:55:21;;;;;;;11.73;4.82;;;;;;;;;;10265998;28;20106;-73
